Time;durP1;ratioP1;P1;durP2;ratioP2;P2;SDS_P1;SDS_P2;PMS_P1;PMS_P2;Temp;Humidity;BMP_temperature;BMP_pressure;BME280_temperature;BME280_humidity;BME280_pressure;Samples;Min_cycle;Max_cycle;Signal;HPM_P1;HPM_P2
2021/03/31 00:02:03;;;;;;;42.17;19.10;;;;;;;;;;5227630;27;20409;-84
2021/03/31 00:04:31;;;;;;;40.12;18.62;;;;;;;;;;5244280;27;20028;-84
2021/03/31 00:06:59;;;;;;;33.45;19.08;;;;;;;;;;5246821;27;20064;-84
2021/03/31 00:09:27;;;;;;;39.05;16.70;;;;;;;;;;5248959;27;20603;-83
2021/03/31 00:11:56;;;;;;;40.53;17.42;;;;;;;;;;5252595;27;20030;-85
2021/03/31 00:14:24;;;;;;;31.92;11.50;;;;;;;;;;5247050;27;20056;-85
2021/03/31 00:16:54;;;;;;;32.45;14.63;;;;;;;;;;5246456;27;20104;-84
2021/03/31 00:19:22;;;;;;;26.12;14.10;;;;;;;;;;5246904;27;20097;-85
2021/03/31 00:21:52;;;;;;;38.08;14.57;;;;;;;;;;5247498;27;20098;-83
2021/03/31 00:24:20;;;;;;;35.60;16.20;;;;;;;;;;5242223;27;20057;-84
2021/03/31 00:26:49;;;;;;;35.47;14.85;;;;;;;;;;5241886;27;20744;-84
2021/03/31 00:29:17;;;;;;;33.58;16.60;;;;;;;;;;5229419;27;20384;-84
2021/03/31 00:31:44;;;;;;;36.92;16.80;;;;;;;;;;5243873;27;20165;-84
2021/03/31 00:34:13;;;;;;;37.10;16.20;;;;;;;;;;5242773;27;20501;-85
2021/03/31 00:36:41;;;;;;;39.50;17.30;;;;;;;;;;5225823;27;20079;-84
2021/03/31 00:39:09;;;;;;;32.60;16.02;;;;;;;;;;5247969;27;20065;-84
2021/03/31 00:41:37;;;;;;;36.60;17.60;;;;;;;;;;5245980;27;20049;-84
2021/03/31 00:44:05;;;;;;;40.67;17.80;;;;;;;;;;5246868;27;20093;-84
2021/03/31 00:46:33;;;;;;;50.90;30.83;;;;;;;;;;5247392;27;20079;-84
2021/03/31 00:49:06;;;;;;;38.83;22.25;;;;;;;;;;5227640;27;20026;-83
2021/03/31 00:51:34;;;;;;;32.72;16.87;;;;;;;;;;5247990;27;20050;-84
2021/03/31 00:54:03;;;;;;;28.98;17.08;;;;;;;;;;5248445;27;20053;-84
2021/03/31 00:56:31;;;;;;;24.00;10.75;;;;;;;;;;5246769;27;20034;-84
2021/03/31 00:58:59;;;;;;;26.62;4.55;;;;;;;;;;5246301;27;20467;-84
2021/03/31 01:01:27;;;;;;;21.15;4.35;;;;;;;;;;5249051;27;20030;-84
2021/03/31 01:03:55;;;;;;;36.08;20.05;;;;;;;;;;5251427;27;20026;-84
2021/03/31 01:06:23;;;;;;;36.38;13.48;;;;;;;;;;5246181;27;20362;-84
2021/03/31 01:08:51;;;;;;;37.55;18.45;;;;;;;;;;5247707;27;20049;-84
2021/03/31 01:11:27;;;;;;;29.63;16.58;;;;;;;;;;5209744;27;20069;-84
2021/03/31 01:14:02;;;;;;;53.72;27.10;;;;;;;;;;5243880;27;20060;-84
2021/03/31 01:16:33;;;;;;;53.38;24.45;;;;;;;;;;5247030;27;20018;-84
2021/03/31 01:19:06;;;;;;;29.20;10.40;;;;;;;;;;5248375;27;20095;-84
2021/03/31 01:21:52;;;;;;;49.72;30.23;;;;;;;;;;5245018;27;20080;-84
2021/03/31 01:24:35;;;;;;;26.45;10.45;;;;;;;;;;5251317;27;20041;-85
2021/03/31 01:27:03;;;;;;;31.17;11.90;;;;;;;;;;5248628;27;20029;-84
2021/03/31 01:29:52;;;;;;;36.78;14.40;;;;;;;;;;5248669;27;20630;-84
2021/03/31 01:32:39;;;;;;;29.83;14.65;;;;;;;;;;5246512;27;20037;-84
2021/03/31 01:35:11;;;;;;;34.45;16.75;;;;;;;;;;5231257;27;20006;-85
2021/03/31 01:37:49;;;;;;;37.50;15.32;;;;;;;;;;5249805;27;20014;-84
2021/03/31 01:40:19;;;;;;;37.53;15.77;;;;;;;;;;5246403;27;20060;-84
2021/03/31 01:42:51;;;;;;;32.55;16.52;;;;;;;;;;5212964;27;20072;-84
2021/03/31 01:45:20;;;;;;;34.80;13.60;;;;;;;;;;5249339;27;20686;-85
2021/03/31 01:47:49;;;;;;;32.50;11.57;;;;;;;;;;5229247;27;20065;-86
2021/03/31 01:50:17;;;;;;;26.58;9.90;;;;;;;;;;5245621;27;20384;-83
2021/03/31 01:52:46;;;;;;;21.23;9.07;;;;;;;;;;5250504;27;20372;-84
2021/03/31 01:55:15;;;;;;;24.00;9.63;;;;;;;;;;5247602;27;20441;-85
2021/03/31 01:57:44;;;;;;;18.67;8.43;;;;;;;;;;5247935;27;20088;-85
2021/03/31 02:00:17;;;;;;;21.92;8.38;;;;;;;;;;5250429;27;20062;-85
2021/03/31 02:02:48;;;;;;;25.52;9.07;;;;;;;;;;5251433;27;20033;-84
2021/03/31 02:05:17;;;;;;;24.90;7.65;;;;;;;;;;5232362;27;20728;-84
2021/03/31 02:07:46;;;;;;;21.80;8.00;;;;;;;;;;5247860;27;20061;-84
2021/03/31 02:10:15;;;;;;;23.10;6.80;;;;;;;;;;5248215;27;20065;-84
2021/03/31 02:12:44;;;;;;;21.90;7.62;;;;;;;;;;5250678;27;21147;-83
2021/03/31 02:15:18;;;;;;;20.48;7.80;;;;;;;;;;5214446;27;20380;-83
2021/03/31 02:17:46;;;;;;;36.55;8.02;;;;;;;;;;5250247;27;20013;-84
2021/03/31 02:20:20;;;;;;;25.67;8.00;;;;;;;;;;5252561;27;20107;-83
2021/03/31 02:22:49;;;;;;;26.10;6.80;;;;;;;;;;5230783;27;20153;-83
2021/03/31 02:25:18;;;;;;;24.52;6.65;;;;;;;;;;5249980;27;20038;-84
2021/03/31 02:27:46;;;;;;;28.35;6.37;;;;;;;;;;5249158;27;20379;-84
2021/03/31 02:30:16;;;;;;;24.30;7.20;;;;;;;;;;5246600;27;20067;-83
2021/03/31 02:32:48;;;;;;;17.05;5.68;;;;;;;;;;5251402;27;20053;-84
2021/03/31 02:35:18;;;;;;;23.98;7.70;;;;;;;;;;5251638;27;20023;-84
2021/03/31 02:37:49;;;;;;;32.83;6.65;;;;;;;;;;5251044;27;20067;-84
2021/03/31 02:40:18;;;;;;;25.45;6.25;;;;;;;;;;5209778;27;20076;-84
2021/03/31 02:42:47;;;;;;;22.58;6.45;;;;;;;;;;5250187;27;20049;-84
2021/03/31 02:45:17;;;;;;;24.17;6.75;;;;;;;;;;5253416;27;20053;-84
2021/03/31 02:47:49;;;;;;;24.65;6.40;;;;;;;;;;5251155;27;20037;-83
2021/03/31 02:50:18;;;;;;;28.17;7.40;;;;;;;;;;5249894;27;20024;-84
2021/03/31 02:52:49;;;;;;;23.10;6.57;;;;;;;;;;5252248;27;20030;-83
2021/03/31 02:55:18;;;;;;;27.27;5.97;;;;;;;;;;5253234;27;20017;-84
2021/03/31 02:57:47;;;;;;;25.35;5.80;;;;;;;;;;5248197;27;20928;-85
2021/03/31 03:00:16;;;;;;;20.37;6.05;;;;;;;;;;5250012;27;20038;-84
2021/03/31 03:02:45;;;;;;;24.37;6.28;;;;;;;;;;5214639;27;20322;-85
2021/03/31 03:05:19;;;;;;;27.05;8.07;;;;;;;;;;5250148;27;20041;-85
2021/03/31 03:07:47;;;;;;;33.85;7.32;;;;;;;;;;5249689;27;20044;-85
2021/03/31 03:10:16;;;;;;;31.67;8.57;;;;;;;;;;5232959;27;20176;-93
2021/03/31 03:13:02;;;;;;;30.52;8.07;;;;;;;;;;5198993;27;20061;-91
2021/03/31 03:15:36;;;;;;;24.12;8.10;;;;;;;;;;5201011;27;20031;-91
2021/03/31 03:18:08;;;;;;;30.75;9.65;;;;;;;;;;5201090;27;20146;-92
2021/03/31 03:20:40;;;;;;;26.20;8.63;;;;;;;;;;5208660;27;20518;-91
2021/03/31 03:23:11;;;;;;;23.73;8.90;;;;;;;;;;5196761;27;20551;-95
2021/03/31 03:25:46;;;;;;;25.08;9.00;;;;;;;;;;5197548;27;20409;-96
2021/03/31 03:28:22;;;;;;;27.10;9.43;;;;;;;;;;5196790;27;20076;-94
2021/03/31 03:30:54;;;;;;;29.87;9.90;;;;;;;;;;5215197;27;20102;-96
2021/03/31 03:33:25;;;;;;;27.42;9.20;;;;;;;;;;5216176;27;20019;-94
2021/03/31 03:35:59;;;;;;;24.87;8.68;;;;;;;;;;5197014;27;20059;-96
2021/03/31 03:38:29;;;;;;;22.30;7.90;;;;;;;;;;5197167;27;20056;-95
2021/03/31 03:40:58;;;;;;;25.30;7.80;;;;;;;;;;5198057;27;20408;-95
2021/03/31 03:43:29;;;;;;;28.30;8.10;;;;;;;;;;5197478;27;20034;-95
2021/03/31 03:45:58;;;;;;;21.42;7.68;;;;;;;;;;5197880;27;20027;-95
2021/03/31 03:48:31;;;;;;;21.45;6.50;;;;;;;;;;5198163;27;20073;-95
2021/03/31 03:50:59;;;;;;;32.92;7.87;;;;;;;;;;5197431;27;20031;-95
2021/03/31 03:53:28;;;;;;;26.00;7.78;;;;;;;;;;5197078;27;20375;-94
2021/03/31 03:55:58;;;;;;;24.70;7.10;;;;;;;;;;5197503;27;20366;-94
2021/03/31 03:58:29;;;;;;;20.98;6.32;;;;;;;;;;5196728;27;20066;-94
2021/03/31 04:01:00;;;;;;;33.70;17.62;;;;;;;;;;5197798;27;20073;-94
2021/03/31 04:03:29;;;;;;;27.05;16.33;;;;;;;;;;5198075;27;20018;-96
2021/03/31 04:05:57;;;;;;;40.88;17.98;;;;;;;;;;5198058;27;20011;-94
2021/03/31 04:08:25;;;;;;;36.53;15.00;;;;;;;;;;5197702;27;20090;-95
2021/03/31 04:10:58;;;;;;;38.08;18.12;;;;;;;;;;5200503;27;20030;-94
2021/03/31 04:13:28;;;;;;;24.52;10.82;;;;;;;;;;5234010;27;20065;-93
2021/03/31 04:16:05;;;;;;;25.75;11.82;;;;;;;;;;5218629;27;20082;-95
2021/03/31 04:18:33;;;;;;;25.40;14.93;;;;;;;;;;5218343;27;20097;-95
2021/03/31 04:21:03;;;;;;;33.45;21.73;;;;;;;;;;5219232;27;20030;-94
2021/03/31 04:23:32;;;;;;;39.33;21.27;;;;;;;;;;5217087;27;20072;-94
2021/03/31 04:26:05;;;;;;;45.12;24.33;;;;;;;;;;5217945;27;20082;-95
2021/03/31 04:28:38;;;;;;;22.20;5.10;;;;;;;;;;5218193;27;20117;-92
2021/03/31 04:31:12;;;;;;;37.30;24.63;;;;;;;;;;5219245;27;20015;-93
2021/03/31 04:33:53;;;;;;;32.22;19.48;;;;;;;;;;5219364;27;20474;-94
2021/03/31 04:36:28;;;;;;;40.78;20.90;;;;;;;;;;5219628;27;20062;-94
2021/03/31 04:39:05;;;;;;;30.85;16.85;;;;;;;;;;5218340;27;20023;-94
2021/03/31 04:41:36;;;;;;;29.87;11.50;;;;;;;;;;5218675;27;20082;-95
2021/03/31 04:44:08;;;;;;;28.52;13.40;;;;;;;;;;5217101;27;20018;-96
2021/03/31 04:46:36;;;;;;;21.75;11.18;;;;;;;;;;5218423;27;20030;-93
2021/03/31 04:49:05;;;;;;;21.25;9.10;;;;;;;;;;5219247;27;20327;-94
2021/03/31 04:51:36;;;;;;;21.50;7.22;;;;;;;;;;5236530;27;20090;-95
2021/03/31 04:54:06;;;;;;;22.92;8.38;;;;;;;;;;5219827;27;20129;-95
2021/03/31 04:56:36;;;;;;;25.52;10.32;;;;;;;;;;5238167;27;20082;-94
2021/03/31 04:59:08;;;;;;;22.10;9.48;;;;;;;;;;5217130;27;20058;-96
2021/03/31 05:01:36;;;;;;;21.67;7.75;;;;;;;;;;5233357;27;20471;-94
2021/03/31 05:04:05;;;;;;;27.73;6.78;;;;;;;;;;5216193;27;20403;-96
2021/03/31 05:06:35;;;;;;;19.80;6.60;;;;;;;;;;5232623;27;20026;-95
2021/03/31 05:09:04;;;;;;;20.92;6.10;;;;;;;;;;5215698;27;20041;-94
2021/03/31 05:11:36;;;;;;;19.73;6.53;;;;;;;;;;5215870;27;20070;-95
2021/03/31 05:14:08;;;;;;;27.98;5.85;;;;;;;;;;5218413;27;20396;-94
2021/03/31 05:16:36;;;;;;;18.33;4.85;;;;;;;;;;5219628;27;20399;-94
2021/03/31 05:19:05;;;;;;;19.85;4.78;;;;;;;;;;5219438;27;20081;-91
2021/03/31 05:21:36;;;;;;;21.58;6.28;;;;;;;;;;5220054;27;20019;-94
2021/03/31 05:24:05;;;;;;;22.62;6.10;;;;;;;;;;5238003;27;20037;-94
2021/03/31 05:26:33;;;;;;;18.73;4.87;;;;;;;;;;5220192;27;20038;-96
2021/03/31 05:29:02;;;;;;;22.80;4.43;;;;;;;;;;5219729;27;20031;-95
2021/03/31 05:31:29;;;;;;;19.20;5.00;;;;;;;;;;5217837;27;20065;-94
2021/03/31 05:33:58;;;;;;;18.10;4.35;;;;;;;;;;5216390;27;20038;-93
2021/03/31 05:36:33;;;;;;;17.90;3.90;;;;;;;;;;5218607;27;20482;-95
2021/03/31 05:39:01;;;;;;;24.27;4.10;;;;;;;;;;5219320;27;20073;-95
2021/03/31 05:41:30;;;;;;;15.05;4.28;;;;;;;;;;5217406;27;20473;-93
2021/03/31 05:44:00;;;;;;;17.20;4.30;;;;;;;;;;5216972;27;20056;-94
2021/03/31 05:46:28;;;;;;;20.17;4.22;;;;;;;;;;5216228;27;20465;-94
2021/03/31 05:48:58;;;;;;;14.50;5.57;;;;;;;;;;5231439;27;20768;-94
2021/03/31 05:51:26;;;;;;;41.90;26.50;;;;;;;;;;5217704;27;20350;-94
2021/03/31 05:53:54;;;;;;;32.95;19.20;;;;;;;;;;5234532;27;20168;-93
2021/03/31 05:56:22;;;;;;;28.27;13.00;;;;;;;;;;5217738;27;20045;-94
2021/03/31 05:58:50;;;;;;;42.35;20.92;;;;;;;;;;5217360;27;20031;-96
2021/03/31 06:01:19;;;;;;;31.87;15.45;;;;;;;;;;5217683;27;20018;-94
2021/03/31 06:03:47;;;;;;;23.62;11.00;;;;;;;;;;5217910;27;20045;-94
2021/03/31 06:06:15;;;;;;;22.48;8.38;;;;;;;;;;5218047;27;20015;-92
2021/03/31 06:08:43;;;;;;;31.17;13.93;;;;;;;;;;5216666;27;20084;-95
2021/03/31 06:11:16;;;;;;;38.25;20.23;;;;;;;;;;5216339;27;20053;-94
2021/03/31 06:13:56;;;;;;;42.60;19.60;;;;;;;;;;5215798;27;20034;-94
2021/03/31 06:16:46;;;;;;;40.60;19.05;;;;;;;;;;5216294;27;20471;-95
2021/03/31 06:19:17;;;;;;;32.60;18.20;;;;;;;;;;5213505;27;20033;-94
2021/03/31 06:22:34;;;;;;;21.95;5.40;;;;;;;;;;5214944;27;20030;-96
2021/03/31 06:25:17;;;;;;;23.52;11.88;;;;;;;;;;5203942;27;20453;-95
2021/03/31 06:27:59;;;;;;;32.42;12.77;;;;;;;;;;5211924;27;20036;-95
2021/03/31 06:30:30;;;;;;;32.15;13.85;;;;;;;;;;5213289;27;20027;-94
2021/03/31 06:33:00;;;;;;;32.70;15.52;;;;;;;;;;5213533;27;20022;-93
2021/03/31 06:35:30;;;;;;;28.02;15.10;;;;;;;;;;5215829;27;20032;-94
2021/03/31 06:38:15;;;;;;;35.22;17.45;;;;;;;;;;5214544;27;20487;-94
2021/03/31 06:40:48;;;;;;;27.50;15.27;;;;;;;;;;5214327;27;20026;-94
2021/03/31 06:43:26;;;;;;;28.75;15.88;;;;;;;;;;5214693;27;20026;-94
2021/03/31 06:46:09;;;;;;;30.88;15.80;;;;;;;;;;5231894;27;20023;-94
2021/03/31 06:48:43;;;;;;;29.73;16.85;;;;;;;;;;5214276;27;20027;-94
2021/03/31 06:51:31;;;;;;;32.40;17.02;;;;;;;;;;5213227;27;20035;-95
2021/03/31 06:54:12;;;;;;;32.20;16.58;;;;;;;;;;5218737;27;20025;-93
2021/03/31 06:56:45;;;;;;;33.42;15.70;;;;;;;;;;5217824;27;20033;-92
2021/03/31 06:59:14;;;;;;;27.50;16.65;;;;;;;;;;5219261;27;20014;-95
2021/03/31 07:01:42;;;;;;;32.50;21.60;;;;;;;;;;5201599;27;20050;-94
2021/03/31 07:04:10;;;;;;;39.47;25.00;;;;;;;;;;5219511;27;20068;-96
2021/03/31 07:06:41;;;;;;;26.37;9.45;;;;;;;;;;5219526;27;20077;-94
2021/03/31 07:09:18;;;;;;;27.60;14.07;;;;;;;;;;5236554;27;20018;-95
2021/03/31 07:11:48;;;;;;;27.95;13.65;;;;;;;;;;5218355;27;20026;-93
2021/03/31 07:14:23;;;;;;;36.00;23.23;;;;;;;;;;5216457;27;20056;-95
2021/03/31 07:16:51;;;;;;;20.88;11.65;;;;;;;;;;5216955;27;20060;-95
2021/03/31 07:19:20;;;;;;;36.05;16.30;;;;;;;;;;5236883;27;20800;-93
2021/03/31 07:22:09;;;;;;;23.33;8.15;;;;;;;;;;5219441;27;20431;-95
2021/03/31 07:24:37;;;;;;;56.03;35.47;;;;;;;;;;5219903;27;20026;-95
2021/03/31 07:27:09;;;;;;;64.93;52.13;;;;;;;;;;5219255;27;20105;-94
2021/03/31 07:29:40;;;;;;;14.25;6.32;;;;;;;;;;5218660;27;20034;-94
2021/03/31 07:32:10;;;;;;;18.45;4.25;;;;;;;;;;5219486;27;20019;-95
2021/03/31 07:34:39;;;;;;;24.05;8.48;;;;;;;;;;5216206;27;20040;-95
2021/03/31 07:37:10;;;;;;;19.05;5.30;;;;;;;;;;5218577;27;20036;-94
2021/03/31 07:39:39;;;;;;;26.87;12.77;;;;;;;;;;5218551;27;20022;-94
2021/03/31 07:42:09;;;;;;;15.48;3.72;;;;;;;;;;5219218;27;20061;-94
2021/03/31 07:44:41;;;;;;;13.90;3.35;;;;;;;;;;5236821;27;20026;-96
2021/03/31 07:47:10;;;;;;;16.15;3.42;;;;;;;;;;5220225;27;20018;-96
2021/03/31 07:49:39;;;;;;;22.15;12.70;;;;;;;;;;5219464;27;20019;-95
2021/03/31 07:52:08;;;;;;;28.40;14.82;;;;;;;;;;5235489;27;20034;-95
2021/03/31 07:54:37;;;;;;;15.10;5.47;;;;;;;;;;5219359;27;20023;-95
2021/03/31 07:57:27;;;;;;;15.43;8.80;;;;;;;;;;5220303;27;20737;-96
2021/03/31 08:00:04;;;;;;;14.27;5.72;;;;;;;;;;5240019;27;20025;-95
2021/03/31 08:02:39;;;;;;;20.27;7.93;;;;;;;;;;5218182;27;20070;-92
2021/03/31 08:05:20;;;;;;;8.70;2.65;;;;;;;;;;5219805;27;20030;-95
2021/03/31 08:08:08;;;;;;;17.20;6.62;;;;;;;;;;5219196;27;20516;-94
2021/03/31 08:10:37;;;;;;;15.70;4.30;;;;;;;;;;5221466;27;20023;-96
2021/03/31 08:13:31;;;;;;;10.88;2.97;;;;;;;;;;5214812;27;20033;-95
2021/03/31 08:16:03;;;;;;;11.32;2.80;;;;;;;;;;5219147;27;20034;-94
2021/03/31 08:18:32;;;;;;;10.60;2.62;;;;;;;;;;5218300;27;20021;-94
2021/03/31 08:21:01;;;;;;;14.25;3.00;;;;;;;;;;5218375;27;20388;-94
2021/03/31 08:24:02;;;;;;;13.30;2.78;;;;;;;;;;5219672;27;20015;-93
2021/03/31 08:26:41;;;;;;;12.05;2.75;;;;;;;;;;5237859;27;20033;-94
2021/03/31 08:29:20;;;;;;;11.25;3.00;;;;;;;;;;5219191;27;20036;-93
2021/03/31 08:32:05;;;;;;;10.68;2.90;;;;;;;;;;5219566;27;20156;-95
2021/03/31 08:34:36;;;;;;;12.07;2.37;;;;;;;;;;5237770;27;20448;-93
2021/03/31 08:37:18;;;;;;;10.90;2.47;;;;;;;;;;5219845;27;20035;-96
2021/03/31 08:39:47;;;;;;;9.60;2.45;;;;;;;;;;5221505;27;20030;-95
2021/03/31 08:42:21;;;;;;;11.75;2.65;;;;;;;;;;5221098;27;20019;-96
2021/03/31 08:44:57;;;;;;;17.12;2.90;;;;;;;;;;5221064;27;20019;-96
2021/03/31 08:47:32;;;;;;;11.12;2.78;;;;;;;;;;5238262;27;20351;-95
2021/03/31 08:50:01;;;;;;;8.00;2.78;;;;;;;;;;5203890;27;20022;-96
2021/03/31 08:52:37;;;;;;;8.23;2.62;;;;;;;;;;5220349;27;20022;-95
2021/03/31 08:55:09;;;;;;;10.93;2.62;;;;;;;;;;5221856;27;20069;-94
2021/03/31 08:57:39;;;;;;;8.18;2.35;;;;;;;;;;5237483;27;20033;-95
2021/03/31 09:00:13;;;;;;;5.03;2.17;;;;;;;;;;5218680;27;20025;-95
2021/03/31 09:02:42;;;;;;;7.47;2.17;;;;;;;;;;5235892;27;20038;-96
2021/03/31 09:05:10;;;;;;;7.10;2.35;;;;;;;;;;5235715;27;20046;-94
2021/03/31 09:07:38;;;;;;;7.43;2.12;;;;;;;;;;5243283;27;20086;-95
2021/03/31 09:10:18;;;;;;;8.07;2.42;;;;;;;;;;5225681;27;20092;-96
2021/03/31 09:12:53;;;;;;;6.50;2.10;;;;;;;;;;5217632;27;20035;-94
2021/03/31 09:15:31;;;;;;;9.13;2.00;;;;;;;;;;5213796;27;20522;-96
2021/03/31 09:18:02;;;;;;;9.23;2.92;;;;;;;;;;5231862;27;20454;-96
2021/03/31 09:20:59;;;;;;;9.57;2.30;;;;;;;;;;5212596;27;20018;-95
2021/03/31 09:23:41;;;;;;;6.80;2.40;;;;;;;;;;5221436;27;20037;-96
2021/03/31 09:26:27;;;;;;;6.70;2.50;;;;;;;;;;5233005;27;20030;-96
2021/03/31 09:29:06;;;;;;;7.25;2.25;;;;;;;;;;5214714;27;20062;-96
2021/03/31 09:31:37;;;;;;;5.55;2.50;;;;;;;;;;5221139;27;20025;-95
2021/03/31 09:34:12;;;;;;;7.35;2.33;;;;;;;;;;5214980;27;20015;-96
2021/03/31 09:37:21;;;;;;;7.62;2.60;;;;;;;;;;5204688;27;20019;-96
2021/03/31 09:39:57;;;;;;;12.02;2.70;;;;;;;;;;5231825;27;20047;-95
2021/03/31 09:42:36;;;;;;;8.07;2.55;;;;;;;;;;5229353;27;20042;-95
2021/03/31 09:45:08;;;;;;;8.23;2.37;;;;;;;;;;5212581;27;20057;-96
2021/03/31 09:47:42;;;;;;;8.18;2.40;;;;;;;;;;5217381;27;20816;-96
2021/03/31 09:50:16;;;;;;;6.45;2.17;;;;;;;;;;5225856;27;20484;-95
2021/03/31 09:52:49;;;;;;;7.78;2.30;;;;;;;;;;5208659;27;20026;-96
2021/03/31 09:55:21;;;;;;;8.60;2.60;;;;;;;;;;5233085;27;20031;-96
2021/03/31 09:57:54;;;;;;;7.37;2.10;;;;;;;;;;5211600;27;20411;-96
2021/03/31 10:00:27;;;;;;;5.57;2.10;;;;;;;;;;5216185;27;20065;-96
2021/03/31 10:03:10;;;;;;;8.63;2.62;;;;;;;;;;5213457;27;20057;-95
2021/03/31 10:05:44;;;;;;;4.37;1.67;;;;;;;;;;5209520;27;20072;-96
2021/03/31 10:08:39;;;;;;;5.68;1.95;;;;;;;;;;5218955;27;20070;-96
2021/03/31 10:11:26;;;;;;;6.40;1.80;;;;;;;;;;5218700;27;20037;-96
2021/03/31 10:14:22;;;;;;;3.78;1.85;;;;;;;;;;5222313;27;20022;-95
2021/03/31 10:16:53;;;;;;;4.78;1.98;;;;;;;;;;5219872;27;20025;-96
2021/03/31 10:19:29;;;;;;;5.90;2.00;;;;;;;;;;5221012;27;20030;-96
2021/03/31 10:22:17;;;;;;;7.45;2.25;;;;;;;;;;5220922;27;20548;-96
2021/03/31 10:25:35;;;;;;;4.53;2.00;;;;;;;;;;5221166;27;20052;-96
2021/03/31 10:28:39;;;;;;;6.18;1.90;;;;;;;;;;5203757;27;20541;-95
2021/03/31 10:31:39;;;;;;;7.93;2.15;;;;;;;;;;5206286;27;20490;-96
2021/03/31 10:34:19;;;;;;;5.60;2.17;;;;;;;;;;5219851;27;20046;-96
2021/03/31 10:37:04;;;;;;;6.72;2.25;;;;;;;;;;5219573;27;20056;-95
2021/03/31 10:54:10;;;;;;;5.28;2.05;;;;;;;;;;5248434;27;20497;-96
2021/03/31 11:00:17;;;;;;;5.30;2.08;;;;;;;;;;5170744;27;20018;-94
2021/03/31 11:02:48;;;;;;;5.62;2.00;;;;;;;;;;5224620;27;20019;-95
2021/03/31 11:05:26;;;;;;;7.65;2.10;;;;;;;;;;5225047;27;20022;-96
2021/03/31 11:08:12;;;;;;;6.73;2.13;;;;;;;;;;5242534;27;20007;-96
2021/03/31 11:10:44;;;;;;;6.57;2.20;;;;;;;;;;5244750;27;20135;-96
2021/03/31 11:13:16;;;;;;;7.68;1.60;;;;;;;;;;5221716;27;20033;-96
2021/03/31 11:15:55;;;;;;;7.40;2.15;;;;;;;;;;5240488;27;20122;-96
2021/03/31 11:18:43;;;;;;;6.65;2.08;;;;;;;;;;5225537;27;20019;-96
2021/03/31 11:26:49;;;;;;;7.28;2.70;;;;;;;;;;5227849;27;20031;-96
2021/03/31 11:29:43;;;;;;;8.07;2.35;;;;;;;;;;5222342;27;20026;-96
2021/03/31 11:32:31;;;;;;;6.35;2.22;;;;;;;;;;5243441;27;20037;-95
2021/03/31 11:35:03;;;;;;;6.85;2.50;;;;;;;;;;5221159;27;20038;-95
2021/03/31 11:37:35;;;;;;;6.57;2.17;;;;;;;;;;5220822;27;20050;-96
2021/03/31 11:40:12;;;;;;;7.10;2.30;;;;;;;;;;5235790;27;20089;-96
2021/03/31 11:42:41;;;;;;;7.30;2.12;;;;;;;;;;5245390;27;20031;-96
2021/03/31 11:45:16;;;;;;;7.55;2.42;;;;;;;;;;5220421;27;20084;-95
2021/03/31 11:47:50;;;;;;;8.75;2.55;;;;;;;;;;5238613;27;20057;-95
2021/03/31 11:50:25;;;;;;;9.73;2.55;;;;;;;;;;5220128;27;20054;-95
2021/03/31 11:55:42;;;;;;;8.02;2.47;;;;;;;;;;5216137;27;20684;-94
2021/03/31 11:58:10;;;;;;;12.10;3.20;;;;;;;;;;5234879;27;20030;-94
2021/03/31 12:00:38;;;;;;;12.82;3.03;;;;;;;;;;5216122;27;20038;-94
2021/03/31 12:03:11;;;;;;;14.27;3.33;;;;;;;;;;5217113;27;20026;-95
2021/03/31 12:05:39;;;;;;;15.32;3.47;;;;;;;;;;5215373;27;20042;-95
2021/03/31 12:08:07;;;;;;;11.70;3.37;;;;;;;;;;5234349;27;20032;-93
2021/03/31 12:10:35;;;;;;;16.17;3.58;;;;;;;;;;5215596;27;20080;-94
2021/03/31 12:13:03;;;;;;;12.73;2.78;;;;;;;;;;5217316;27;20037;-94
2021/03/31 12:15:32;;;;;;;15.02;3.20;;;;;;;;;;5231702;27;20038;-96
2021/03/31 12:18:01;;;;;;;13.10;3.42;;;;;;;;;;5235861;27;20021;-92
2021/03/31 12:20:29;;;;;;;14.02;3.40;;;;;;;;;;5218889;27;20077;-94
2021/03/31 12:23:02;;;;;;;14.07;3.35;;;;;;;;;;5236253;27;20014;-95
2021/03/31 12:25:30;;;;;;;10.70;3.30;;;;;;;;;;5236647;27;20069;-95
2021/03/31 12:28:02;;;;;;;14.85;3.40;;;;;;;;;;5217959;27;20029;-95
2021/03/31 12:30:36;;;;;;;11.77;3.08;;;;;;;;;;5218953;27;20057;-93
2021/03/31 12:33:04;;;;;;;12.98;3.25;;;;;;;;;;5218005;27;20077;-95
2021/03/31 12:35:32;;;;;;;13.60;3.35;;;;;;;;;;5219570;27;20026;-96
2021/03/31 12:38:01;;;;;;;16.10;3.70;;;;;;;;;;5236078;27;20033;-95
2021/03/31 12:40:33;;;;;;;11.80;3.37;;;;;;;;;;5219325;27;20026;-93
2021/03/31 12:43:02;;;;;;;10.20;3.08;;;;;;;;;;5237189;27;20028;-93
2021/03/31 12:45:37;;;;;;;10.60;3.15;;;;;;;;;;5237402;27;20097;-96
2021/03/31 12:48:10;;;;;;;11.52;3.15;;;;;;;;;;5219204;27;20066;-95
2021/03/31 12:50:39;;;;;;;13.07;3.20;;;;;;;;;;5236650;27;20026;-95
2021/03/31 12:53:30;;;;;;;14.15;3.30;;;;;;;;;;5218372;27;20022;-94
2021/03/31 12:56:01;;;;;;;17.35;3.78;;;;;;;;;;5217393;27;20037;-94
2021/03/31 12:58:32;;;;;;;16.15;3.70;;;;;;;;;;5236160;27;20018;-95
2021/03/31 13:01:10;;;;;;;12.93;3.10;;;;;;;;;;5236198;27;20039;-94
2021/03/31 13:03:59;;;;;;;12.68;2.95;;;;;;;;;;5218192;27;20022;-94
2021/03/31 13:06:32;;;;;;;16.33;3.47;;;;;;;;;;5236404;27;20073;-94
2021/03/31 13:09:23;;;;;;;13.30;3.17;;;;;;;;;;5217584;27;20072;-93
2021/03/31 13:12:21;;;;;;;13.05;3.50;;;;;;;;;;5232830;27;20034;-94
2021/03/31 13:15:30;;;;;;;14.95;3.45;;;;;;;;;;5214403;27;20428;-94
2021/03/31 13:32:48;;;;;;;12.98;2.85;;;;;;;;;;5213851;27;20042;-93
2021/03/31 13:38:29;;;;;;;13.05;3.05;;;;;;;;;;5147574;27;20127;-93
2021/03/31 13:41:00;;;;;;;13.50;3.30;;;;;;;;;;5186757;27;20026;-94
2021/03/31 13:43:29;;;;;;;12.98;3.05;;;;;;;;;;5232609;27;20022;-93
2021/03/31 13:45:57;;;;;;;12.57;3.10;;;;;;;;;;5215829;27;20045;-92
2021/03/31 13:48:53;;;;;;;12.37;3.10;;;;;;;;;;5218291;27;20156;-93
2021/03/31 13:52:02;;;;;;;14.87;3.45;;;;;;;;;;5216403;27;20415;-94
2021/03/31 13:54:45;;;;;;;;;;;;;;;;;;5218172;27;20041;-94
2021/03/31 13:57:41;;;;;;;15.57;3.25;;;;;;;;;;5200510;27;19984;-93
2021/03/31 14:00:22;;;;;;;14.60;3.30;;;;;;;;;;5213546;27;20057;-94
2021/03/31 14:02:56;;;;;;;11.60;2.95;;;;;;;;;;5213315;27;20417;-96
2021/03/31 14:05:24;;;;;;;16.85;3.62;;;;;;;;;;5210954;27;20130;-94
2021/03/31 14:08:13;;;;;;;15.88;3.03;;;;;;;;;;5238010;27;20082;-93
2021/03/31 14:11:07;;;;;;;16.40;3.60;;;;;;;;;;5213548;27;20049;-94
2021/03/31 14:14:26;;;;;;;17.25;3.62;;;;;;;;;;5213659;27;20034;-94
2021/03/31 14:17:05;;;;;;;14.52;3.60;;;;;;;;;;5214051;27;20248;-93
2021/03/31 14:19:54;;;;;;;13.07;3.00;;;;;;;;;;5232752;27;20335;-93
2021/03/31 14:22:22;;;;;;;;;;;;;;;;;;5213463;27;20022;-92
2021/03/31 14:24:55;;;;;;;12.32;2.80;;;;;;;;;;5197266;27;19959;-93
2021/03/31 14:27:30;;;;;;;13.57;2.70;;;;;;;;;;5214413;27;20072;-93
2021/03/31 14:30:22;;;;;;;17.15;3.28;;;;;;;;;;5212580;27;20036;-94
2021/03/31 14:33:11;;;;;;;13.52;3.22;;;;;;;;;;5212653;27;20427;-95
2021/03/31 14:36:05;;;;;;;14.32;2.95;;;;;;;;;;5213132;27;20355;-93
2021/03/31 14:38:58;;;;;;;15.45;2.92;;;;;;;;;;5214916;27;20495;-94
2021/03/31 14:41:49;;;;;;;13.77;3.00;;;;;;;;;;5211683;27;20427;-93
2021/03/31 14:44:39;;;;;;;12.55;2.65;;;;;;;;;;5212544;27;20034;-94
2021/03/31 14:47:35;;;;;;;14.73;3.03;;;;;;;;;;5214618;27;20079;-94
2021/03/31 14:50:28;;;;;;;14.60;2.97;;;;;;;;;;5214376;27;20041;-94
2021/03/31 15:01:25;;;;;;;13.23;2.95;;;;;;;;;;5177088;27;20037;-94
2021/03/31 15:03:57;;;;;;;13.62;3.00;;;;;;;;;;5213816;27;20071;-94
2021/03/31 15:06:25;;;;;;;12.93;2.85;;;;;;;;;;5232214;27;20061;-93
2021/03/31 15:08:58;;;;;;;11.57;2.50;;;;;;;;;;5214871;27;20038;-93
2021/03/31 15:11:27;;;;;;;12.40;3.25;;;;;;;;;;5214333;27;20367;-94
2021/03/31 15:14:04;;;;;;;12.20;3.00;;;;;;;;;;5214250;27;20065;-93
2021/03/31 15:16:53;;;;;;;12.18;2.30;;;;;;;;;;5229368;27;20041;-92
2021/03/31 15:22:43;;;;;;;11.63;2.65;;;;;;;;;;5141044;27;20145;-93
2021/03/31 15:25:18;;;;;;;14.23;2.67;;;;;;;;;;5231418;27;20430;-94
2021/03/31 15:28:09;;;;;;;10.63;2.60;;;;;;;;;;5219014;27;20434;-94
2021/03/31 15:30:43;;;;;;;12.10;2.55;;;;;;;;;;5232304;27;20064;-93
2021/03/31 15:33:19;;;;;;;11.15;2.33;;;;;;;;;;5232662;27;20076;-94
2021/03/31 15:35:47;;;;;;;11.98;2.65;;;;;;;;;;5211789;27;20057;-94
2021/03/31 15:38:18;;;;;;;8.50;2.50;;;;;;;;;;5209851;27;20080;-93
2021/03/31 15:40:47;;;;;;;9.55;2.50;;;;;;;;;;5211028;27;20036;-93
2021/03/31 15:43:15;;;;;;;11.30;2.78;;;;;;;;;;5212706;27;20081;-92
2021/03/31 15:45:58;;;;;;;11.27;3.10;;;;;;;;;;5212280;27;20041;-93
2021/03/31 15:48:34;;;;;;;11.50;2.47;;;;;;;;;;5214180;27;20066;-93
2021/03/31 15:51:07;;;;;;;9.85;2.47;;;;;;;;;;5231863;27;20035;-92
2021/03/31 15:53:42;;;;;;;12.80;2.70;;;;;;;;;;5216397;27;20022;-96
2021/03/31 15:56:26;;;;;;;13.43;2.75;;;;;;;;;;5223232;27;20093;-96
2021/03/31 15:59:12;;;;;;;15.85;3.10;;;;;;;;;;5216076;27;20081;-94
2021/03/31 16:01:45;;;;;;;14.52;3.05;;;;;;;;;;5237309;27;20133;-96
2021/03/31 16:04:29;;;;;;;15.00;3.10;;;;;;;;;;5237164;27;20404;-96
2021/03/31 16:07:32;;;;;;;14.98;3.20;;;;;;;;;;5217448;27;20030;-96
2021/03/31 16:10:02;;;;;;;15.20;3.33;;;;;;;;;;5216568;27;20040;-96